createdAt,value
2018-03-01T00:02:24.088Z,12.40
2018-03-01T00:04:52.239Z,12.30
2018-03-01T00:07:21.170Z,12.30
2018-03-01T00:09:49.321Z,12.30
2018-03-01T00:12:17.472Z,12.40
2018-03-01T00:14:45.676Z,12.40
2018-03-01T00:17:13.896Z,12.50
2018-03-01T00:19:42.287Z,12.40
2018-03-01T00:22:11.242Z,12.40
2018-03-01T00:24:39.402Z,12.40
2018-03-01T00:27:07.635Z,12.40
2018-03-01T00:29:36.575Z,12.40
2018-03-01T00:32:04.801Z,12.40
2018-03-01T00:34:33.686Z,12.40
2018-03-01T00:37:01.864Z,12.40
2018-03-01T00:39:30.072Z,12.40
2018-03-01T00:41:58.316Z,12.40
2018-03-01T00:44:26.486Z,12.40
2018-03-01T00:46:55.430Z,12.40
2018-03-01T00:49:23.619Z,12.40
2018-03-01T00:51:51.803Z,12.40
2018-03-01T00:54:20.749Z,12.30
2018-03-01T00:56:48.903Z,12.30
2018-03-01T00:59:17.215Z,12.30
2018-03-01T01:01:45.729Z,12.40
2018-03-01T01:04:14.747Z,12.40
2018-03-01T01:06:42.904Z,12.40
2018-03-01T01:09:11.839Z,12.40
2018-03-01T01:11:40.109Z,12.40
2018-03-01T01:14:08.458Z,12.50
2018-03-01T01:16:36.624Z,12.50
2018-03-01T01:19:04.889Z,12.60
2018-03-01T01:21:34.036Z,12.60
2018-03-01T01:24:02.315Z,12.50
2018-03-01T01:26:30.958Z,12.50
2018-03-01T01:28:59.135Z,12.50
2018-03-01T01:31:27.351Z,12.40
2018-03-01T01:33:55.511Z,12.50
2018-03-01T01:36:23.661Z,12.40
2018-03-01T01:38:51.870Z,12.50
2018-03-01T01:41:20.077Z,12.50
2018-03-01T01:43:49.000Z,12.60
2018-03-01T01:46:17.176Z,12.60
2018-03-01T01:48:45.364Z,12.60
2018-03-01T01:51:13.521Z,12.60
2018-03-01T01:53:42.480Z,12.60
2018-03-01T01:56:11.414Z,12.70
2018-03-01T01:58:39.632Z,12.60
2018-03-01T02:01:07.857Z,12.60
2018-03-01T02:03:36.033Z,13.00
2018-03-01T02:06:04.299Z,12.60
2018-03-01T02:08:32.448Z,12.60
2018-03-01T02:11:01.385Z,12.70
2018-03-01T02:13:29.584Z,12.70
2018-03-01T02:15:57.767Z,12.70
2018-03-01T02:18:25.913Z,12.70
2018-03-01T02:20:54.089Z,12.70
2018-03-01T02:23:22.332Z,12.70
2018-03-01T02:25:50.504Z,12.70
2018-03-01T02:28:18.681Z,12.70
2018-03-01T02:30:46.879Z,12.70
2018-03-01T02:33:15.060Z,12.60
2018-03-01T02:35:43.297Z,12.70
2018-03-01T02:38:11.532Z,12.70
2018-03-01T02:40:39.803Z,13.10
2018-03-01T02:43:08.016Z,12.90
2018-03-01T02:45:36.954Z,12.90
2018-03-01T02:48:05.126Z,12.90
2018-03-01T02:50:33.346Z,12.90
2018-03-01T02:53:01.499Z,13.00
2018-03-01T02:55:29.832Z,12.90
2018-03-01T02:57:57.970Z,12.90
2018-03-01T03:00:26.145Z,12.90
2018-03-01T03:02:54.290Z,13.00
2018-03-01T03:05:23.247Z,13.00
2018-03-01T03:07:51.475Z,12.90
2018-03-01T03:10:19.655Z,12.90
2018-03-01T03:12:47.939Z,12.80
2018-03-01T03:15:16.228Z,12.90
2018-03-01T03:17:44.442Z,12.80
2018-03-01T03:20:12.649Z,12.70
2018-03-01T03:22:40.860Z,12.60
2018-03-01T03:25:09.003Z,12.70
2018-03-01T03:27:37.204Z,12.70
2018-03-01T03:30:05.445Z,12.70
2018-03-01T03:32:33.725Z,12.70
2018-03-01T03:35:01.894Z,12.70
2018-03-01T03:37:30.095Z,12.60
2018-03-01T03:39:58.287Z,12.60
2018-03-01T03:42:26.462Z,12.50
2018-03-01T03:44:54.652Z,12.50
2018-03-01T03:47:23.636Z,12.40
2018-03-01T03:49:51.838Z,12.30
2018-03-01T03:52:20.826Z,12.50
2018-03-01T03:54:49.776Z,12.50
2018-03-01T03:57:17.937Z,12.50
2018-03-01T03:59:46.103Z,12.50
2018-03-01T04:02:14.276Z,12.50
2018-03-01T04:04:42.472Z,12.50
2018-03-01T04:07:10.646Z,12.50
2018-03-01T04:09:38.790Z,12.40
2018-03-01T04:12:06.930Z,12.40
2018-03-01T04:14:35.874Z,12.40
2018-03-01T04:17:04.099Z,12.40
2018-03-01T04:19:33.098Z,12.40
2018-03-01T04:22:01.264Z,12.40
2018-03-01T04:24:29.424Z,12.40
2018-03-01T04:26:58.356Z,12.40
2018-03-01T04:29:26.532Z,12.40
2018-03-01T04:31:54.678Z,12.40
2018-03-01T04:34:22.833Z,12.50
2018-03-01T04:36:51.831Z,12.60
2018-03-01T04:39:20.000Z,12.60
2018-03-01T04:41:48.918Z,12.40
2018-03-01T04:44:17.064Z,12.40
2018-03-01T04:46:46.120Z,12.20
2018-03-01T04:49:14.280Z,12.20
2018-03-01T04:51:42.505Z,12.20
2018-03-01T04:54:10.733Z,12.10
2018-03-01T04:56:38.980Z,12.10
2018-03-01T04:59:07.187Z,12.00
2018-03-01T05:01:35.381Z,12.00
2018-03-01T05:04:03.596Z,12.00
2018-03-01T05:06:31.791Z,12.00
2018-03-01T05:08:59.947Z,11.90
2018-03-01T05:11:28.126Z,11.90
2018-03-01T05:13:56.280Z,11.90
2018-03-01T05:16:24.474Z,11.90
2018-03-01T05:18:52.641Z,11.80
2018-03-01T05:21:20.784Z,11.90
2018-03-01T05:23:49.830Z,11.80
2018-03-01T05:26:17.975Z,11.80
2018-03-01T05:28:46.133Z,11.60
2018-03-01T05:31:15.058Z,11.60
2018-03-01T05:33:43.238Z,11.50
2018-03-01T05:36:11.384Z,11.60
2018-03-01T05:38:39.565Z,11.60
2018-03-01T05:41:07.713Z,11.70
2018-03-01T05:43:35.897Z,11.70
2018-03-01T05:46:04.107Z,11.80
2018-03-01T05:48:32.289Z,11.90
2018-03-01T05:51:00.538Z,12.00
2018-03-01T05:53:28.714Z,11.90
2018-03-01T05:55:56.905Z,12.00
2018-03-01T05:58:25.161Z,12.00
2018-03-01T06:00:53.464Z,12.00
2018-03-01T06:03:21.637Z,12.00
2018-03-01T06:05:49.803Z,12.00
2018-03-01T06:08:18.003Z,11.90
2018-03-01T06:10:46.906Z,11.90
2018-03-01T06:13:15.816Z,11.90
2018-03-01T06:15:43.987Z,11.90
2018-03-01T06:18:12.185Z,12.00
2018-03-01T06:20:40.366Z,11.90
2018-03-01T06:23:08.591Z,11.90
2018-03-01T06:25:37.622Z,12.30
2018-03-01T06:28:05.781Z,11.80
2018-03-01T06:30:33.954Z,12.00
2018-03-01T06:33:02.198Z,11.90
2018-03-01T06:35:31.116Z,11.80
2018-03-01T06:37:59.294Z,11.80
2018-03-01T06:40:27.453Z,11.90
2018-03-01T06:42:55.592Z,12.00
2018-03-01T06:45:23.722Z,12.00
2018-03-01T06:47:51.870Z,12.00
2018-03-01T06:50:20.030Z,12.10
2018-03-01T06:52:48.974Z,12.20
2018-03-01T06:55:17.193Z,12.20
2018-03-01T06:57:46.120Z,12.10
2018-03-01T07:00:14.333Z,12.20
2018-03-01T07:02:42.559Z,12.10
2018-03-01T07:05:10.732Z,12.20
2018-03-01T07:07:38.948Z,12.20
2018-03-01T07:10:07.090Z,12.20
2018-03-01T07:12:35.271Z,12.30
2018-03-01T07:15:03.422Z,12.30
2018-03-01T07:17:31.729Z,12.30
2018-03-01T07:19:59.871Z,12.40
2018-03-01T07:22:28.034Z,12.40
2018-03-01T07:24:56.210Z,12.40
2018-03-01T07:27:24.432Z,12.50
2018-03-01T07:29:52.691Z,12.50
2018-03-01T07:32:20.986Z,12.50
2018-03-01T07:34:49.342Z,12.40
2018-03-01T07:37:18.296Z,12.50
2018-03-01T07:39:46.458Z,12.50
2018-03-01T07:42:15.405Z,12.50
2018-03-01T07:44:43.553Z,12.50
2018-03-01T07:47:11.702Z,12.60
2018-03-01T07:49:39.962Z,12.60
2018-03-01T07:52:09.231Z,12.60
2018-03-01T07:54:37.434Z,12.60
2018-03-01T07:57:05.600Z,12.70
2018-03-01T07:59:35.512Z,12.80
2018-03-01T08:02:04.331Z,12.70
2018-03-01T08:04:32.533Z,12.80
2018-03-01T08:07:00.688Z,12.80
2018-03-01T08:09:29.008Z,12.80
2018-03-01T08:11:57.214Z,12.80
2018-03-01T08:14:26.158Z,12.70
2018-03-01T08:16:55.129Z,12.60
2018-03-01T08:19:24.109Z,12.60
2018-03-01T08:21:52.262Z,12.60
2018-03-01T08:24:20.488Z,12.60
2018-03-01T08:26:48.650Z,12.60
2018-03-01T08:29:17.577Z,12.60
2018-03-01T08:31:45.898Z,12.60
2018-03-01T08:34:14.088Z,12.50
2018-03-01T08:36:42.345Z,12.50
2018-03-01T08:39:10.522Z,12.50
2018-03-01T08:41:38.769Z,12.50
2018-03-01T08:44:07.014Z,12.40
2018-03-01T08:46:35.728Z,12.30
2018-03-01T08:49:04.655Z,12.30
2018-03-01T08:51:32.959Z,12.30
2018-03-01T08:54:01.164Z,12.20
2018-03-01T08:56:30.172Z,12.30
2018-03-01T08:58:58.406Z,12.30
2018-03-01T09:01:26.803Z,12.30
2018-03-01T09:03:54.994Z,12.30
2018-03-01T09:06:23.306Z,12.30
2018-03-01T09:08:51.531Z,12.30
2018-03-01T09:11:19.980Z,12.40
2018-03-01T09:13:48.159Z,12.50
2018-03-01T09:16:16.330Z,12.60
2018-03-01T09:18:44.503Z,12.60
2018-03-01T09:21:12.744Z,12.60
2018-03-01T09:23:40.919Z,12.70
2018-03-01T09:26:09.091Z,12.70
2018-03-01T09:28:41.174Z,12.60
2018-03-01T09:31:10.139Z,12.50
2018-03-01T09:33:38.598Z,12.40
2018-03-01T09:36:06.839Z,12.40
2018-03-01T09:38:35.140Z,12.30
2018-03-01T09:41:03.380Z,12.30
2018-03-01T09:43:31.672Z,12.10
2018-03-01T09:46:00.622Z,12.30
2018-03-01T09:48:28.803Z,12.30
2018-03-01T09:50:57.020Z,12.40
2018-03-01T09:53:25.914Z,12.50
2018-03-01T09:55:54.902Z,12.50
2018-03-01T09:58:23.892Z,12.40
2018-03-01T10:00:52.122Z,12.40
2018-03-01T10:03:20.296Z,12.50
2018-03-01T10:05:48.504Z,12.90
2018-03-01T10:08:17.617Z,12.40
2018-03-01T10:10:46.543Z,12.50
2018-03-01T10:13:14.732Z,12.30
2018-03-01T10:15:42.987Z,12.40
2018-03-01T10:18:11.210Z,12.50
2018-03-01T10:20:39.508Z,12.50
2018-03-01T10:23:07.716Z,12.50
2018-03-01T10:25:35.952Z,12.60
2018-03-01T10:28:04.859Z,12.60
2018-03-01T10:30:33.031Z,12.60
2018-03-01T10:33:01.185Z,12.60
2018-03-01T10:35:29.393Z,13.00
2018-03-01T10:37:57.571Z,12.50
2018-03-01T10:40:25.751Z,12.40
2018-03-01T10:42:54.004Z,12.40
2018-03-01T10:45:22.457Z,12.40
2018-03-01T10:47:51.427Z,12.20
2018-03-01T10:50:19.770Z,12.20
2018-03-01T10:52:47.946Z,12.10
2018-03-01T10:55:16.123Z,12.10
2018-03-01T10:57:44.411Z,12.20
2018-03-01T11:00:13.305Z,12.20
2018-03-01T11:02:41.490Z,12.00
2018-03-01T11:05:10.024Z,11.90
2018-03-01T11:07:38.219Z,12.00
2018-03-01T11:10:06.371Z,12.00
2018-03-01T11:12:34.529Z,12.10
2018-03-01T11:15:02.675Z,12.00
2018-03-01T11:17:31.584Z,12.00
2018-03-01T11:19:59.947Z,12.00
2018-03-01T11:22:28.361Z,12.10
2018-03-01T11:24:56.763Z,12.00
2018-03-01T11:27:24.975Z,11.90
2018-03-01T11:29:53.982Z,12.00
2018-03-01T11:32:22.188Z,11.90
2018-03-01T11:34:50.399Z,12.10
2018-03-01T11:37:18.616Z,12.20
2018-03-01T11:39:47.735Z,12.30
2018-03-01T11:42:16.016Z,12.40
2018-03-01T11:44:45.010Z,12.40
2018-03-01T11:47:13.210Z,12.40
2018-03-01T11:49:41.378Z,12.30
2018-03-01T11:52:09.563Z,12.40
2018-03-01T11:54:37.964Z,12.30
2018-03-01T11:57:06.112Z,12.50
2018-03-01T11:59:34.283Z,12.30
2018-03-01T12:02:02.433Z,12.30
2018-03-01T12:04:30.684Z,12.20
2018-03-01T12:06:58.834Z,12.30
2018-03-01T12:09:27.007Z,12.30
2018-03-01T12:11:55.292Z,12.30
2018-03-01T12:14:23.469Z,12.40
2018-03-01T12:16:51.697Z,12.30
2018-03-01T12:19:19.955Z,12.40
2018-03-01T12:21:48.129Z,12.30
2018-03-01T12:24:17.000Z,12.30
2018-03-01T12:26:45.186Z,12.30
2018-03-01T12:29:19.744Z,12.40
2018-03-01T12:31:48.076Z,12.40
2018-03-01T12:34:16.226Z,12.50
2018-03-01T12:36:44.439Z,12.60
2018-03-01T12:39:13.038Z,12.60
2018-03-01T12:41:41.238Z,12.70
2018-03-01T12:44:09.378Z,12.80
2018-03-01T12:46:37.517Z,13.10
2018-03-01T12:49:05.714Z,13.20
2018-03-01T12:51:34.168Z,13.60
2018-03-01T12:54:02.316Z,14.30
2018-03-01T12:56:30.525Z,14.40
2018-03-01T12:58:59.489Z,14.80
2018-03-01T13:01:27.726Z,14.80
2018-03-01T13:03:55.969Z,14.90
2018-03-01T13:06:24.123Z,14.80
2018-03-01T13:08:52.292Z,14.50
2018-03-01T13:11:20.475Z,14.50
2018-03-01T13:13:48.780Z,14.20
2018-03-01T13:16:17.041Z,14.30
2018-03-01T13:18:45.244Z,14.10
2018-03-01T13:21:14.179Z,14.80
2018-03-01T13:23:42.373Z,14.80
2018-03-01T13:26:10.579Z,15.00
2018-03-01T13:28:38.775Z,15.30
2018-03-01T13:31:11.434Z,15.00
2018-03-01T13:33:45.107Z,14.30
2018-03-01T13:36:13.312Z,14.10
2018-03-01T13:38:41.485Z,14.60
2018-03-01T13:41:10.450Z,15.40
2018-03-01T13:43:38.679Z,15.40
2018-03-01T13:46:09.348Z,15.60
2018-03-01T13:48:37.511Z,15.70
2018-03-01T13:51:05.754Z,15.70
2018-03-01T13:53:33.968Z,15.40
2018-03-01T13:56:02.282Z,14.80
2018-03-01T13:58:31.210Z,15.80
2018-03-01T14:00:59.815Z,15.70
2018-03-01T14:03:28.029Z,15.80
2018-03-01T14:08:59.270Z,16.00
2018-03-01T14:11:27.474Z,16.20
2018-03-01T14:13:55.643Z,16.20
2018-03-01T14:16:23.811Z,16.10
2018-03-01T14:18:58.161Z,16.00
2018-03-01T14:21:32.793Z,16.00
2018-03-01T14:24:15.840Z,16.00
2018-03-01T14:26:49.765Z,16.30
2018-03-01T14:32:18.736Z,16.40
2018-03-01T14:34:46.928Z,16.50
2018-03-01T14:37:15.124Z,16.40
2018-03-01T14:39:43.375Z,16.40
2018-03-01T14:42:11.606Z,16.40
2018-03-01T14:44:39.773Z,16.40
2018-03-01T14:47:07.922Z,16.30
2018-03-01T14:49:36.855Z,16.40
2018-03-01T14:52:05.067Z,16.30
2018-03-01T14:54:33.292Z,16.40
2018-03-01T14:57:01.514Z,16.60
2018-03-01T14:59:29.678Z,16.60
2018-03-01T15:01:57.930Z,16.60
2018-03-01T15:04:26.058Z,16.50
2018-03-01T15:06:55.208Z,16.60
2018-03-01T15:09:23.380Z,16.50
2018-03-01T15:11:51.607Z,16.60
2018-03-01T15:14:20.595Z,16.50
2018-03-01T15:16:48.832Z,16.40
2018-03-01T15:19:17.025Z,16.30
2018-03-01T15:21:45.322Z,16.40
2018-03-01T15:24:13.513Z,16.40
2018-03-01T15:26:41.751Z,16.60
2018-03-01T15:29:09.920Z,16.70
2018-03-01T15:31:38.155Z,16.80
2018-03-01T15:34:06.345Z,17.00
2018-03-01T15:36:34.527Z,17.00
2018-03-01T15:39:02.769Z,16.80
2018-03-01T15:41:30.918Z,16.70
2018-03-01T15:43:59.887Z,16.30
2018-03-01T15:46:28.112Z,16.30
2018-03-01T15:48:56.293Z,16.30
2018-03-01T15:51:24.499Z,16.30
2018-03-01T15:53:53.512Z,16.30
2018-03-01T15:56:22.438Z,15.80
2018-03-01T15:58:50.718Z,15.70
2018-03-01T16:01:34.278Z,15.60
2018-03-01T16:04:02.533Z,16.20
2018-03-01T16:06:30.811Z,16.60
2018-03-01T16:08:59.066Z,16.80
2018-03-01T16:11:27.406Z,17.00
2018-03-01T16:13:55.640Z,17.00
2018-03-01T16:16:23.834Z,17.10
2018-03-01T16:18:52.021Z,16.80
2018-03-01T16:21:20.267Z,16.70
2018-03-01T16:23:48.550Z,16.50
2018-03-01T16:26:16.860Z,16.80
2018-03-01T16:28:45.031Z,16.80
2018-03-01T16:31:13.997Z,17.00
2018-03-01T16:33:42.285Z,17.00
2018-03-01T16:36:10.441Z,16.80
2018-03-01T16:38:38.662Z,16.60
2018-03-01T16:41:07.872Z,16.80
2018-03-01T16:43:36.030Z,17.00
2018-03-01T16:46:04.320Z,17.10
2018-03-01T16:48:37.853Z,17.10
2018-03-01T16:51:06.243Z,17.10
2018-03-01T16:53:35.310Z,17.00
2018-03-01T16:56:03.491Z,17.00
2018-03-01T16:58:31.845Z,17.00
2018-03-01T17:01:00.049Z,16.50
2018-03-01T17:03:28.323Z,16.90
2018-03-01T17:05:56.520Z,16.90
2018-03-01T17:08:24.699Z,16.70
2018-03-01T17:10:53.779Z,16.90
2018-03-01T17:13:21.965Z,16.90
2018-03-01T17:15:50.162Z,17.00
2018-03-01T17:18:18.376Z,17.10
2018-03-01T17:20:46.693Z,17.10
2018-03-01T17:23:14.937Z,17.10
2018-03-01T17:25:43.068Z,17.00
2018-03-01T17:28:11.271Z,17.10
2018-03-01T17:30:40.535Z,17.10
2018-03-01T17:33:08.806Z,17.10
2018-03-01T17:35:37.001Z,17.20
2018-03-01T17:38:05.296Z,17.20
2018-03-01T17:40:33.521Z,17.20
2018-03-01T17:43:01.756Z,17.10
2018-03-01T17:45:29.932Z,17.10
2018-03-01T17:47:58.204Z,17.20
2018-03-01T17:50:26.393Z,17.30
2018-03-01T17:52:54.613Z,17.30
2018-03-01T17:55:22.972Z,17.20
2018-03-01T17:57:51.977Z,17.20
2018-03-01T18:00:20.227Z,17.10
2018-03-01T18:02:48.429Z,17.10
2018-03-01T18:05:16.630Z,17.10
2018-03-01T18:07:44.876Z,17.00
2018-03-01T18:10:13.078Z,16.90
2018-03-01T18:12:41.300Z,16.90
2018-03-01T18:15:10.273Z,16.90
2018-03-01T18:17:39.577Z,16.90
2018-03-01T18:20:07.758Z,16.90
2018-03-01T18:22:36.039Z,16.90
2018-03-01T18:25:04.245Z,16.80
2018-03-01T18:27:32.441Z,16.80
2018-03-01T18:30:00.594Z,16.80
2018-03-01T18:32:28.825Z,16.90
2018-03-01T18:34:57.011Z,16.90
2018-03-01T18:37:25.930Z,16.90
2018-03-01T18:39:54.150Z,16.90
2018-03-01T18:42:22.478Z,16.80
2018-03-01T18:44:50.650Z,16.90
2018-03-01T18:47:18.905Z,16.90
2018-03-01T18:49:47.969Z,17.00
2018-03-01T18:52:17.140Z,17.00
2018-03-01T18:54:45.386Z,17.00
2018-03-01T18:57:13.513Z,17.00
2018-03-01T18:59:41.856Z,17.00
2018-03-01T19:02:10.151Z,17.00
2018-03-01T19:04:38.448Z,16.90
2018-03-01T19:07:06.599Z,16.80
2018-03-01T19:09:34.791Z,16.80
2018-03-01T19:12:02.975Z,16.70
2018-03-01T19:14:31.248Z,17.00
2018-03-01T19:16:59.562Z,16.80
2018-03-01T19:19:28.588Z,16.80
2018-03-01T19:21:56.844Z,16.80
2018-03-01T19:24:25.057Z,16.80
2018-03-01T19:26:53.210Z,16.80
2018-03-01T19:29:21.452Z,16.90
2018-03-01T19:31:49.663Z,16.90
2018-03-01T19:34:17.895Z,16.90
2018-03-01T19:36:46.058Z,17.00
2018-03-01T19:39:14.884Z,17.00
2018-03-01T19:41:43.085Z,17.00
2018-03-01T19:44:12.424Z,16.90
2018-03-01T19:46:40.700Z,16.90
2018-03-01T19:49:08.912Z,16.90
2018-03-01T19:51:37.115Z,16.90
2018-03-01T19:54:05.368Z,16.90
2018-03-01T19:56:33.685Z,17.00
2018-03-01T19:59:02.662Z,17.00
2018-03-01T20:01:30.836Z,17.00
2018-03-01T20:03:59.085Z,16.90
2018-03-01T20:06:27.265Z,16.90
2018-03-01T20:08:55.496Z,16.90
2018-03-01T20:11:23.736Z,17.00
2018-03-01T20:13:52.151Z,17.00
2018-03-01T20:16:20.362Z,17.00
2018-03-01T20:18:48.562Z,16.90
2018-03-01T20:21:16.890Z,17.40
2018-03-01T20:23:45.067Z,16.80
2018-03-01T20:26:13.336Z,16.80
2018-03-01T20:28:41.534Z,16.90
2018-03-01T20:31:09.807Z,16.90
2018-03-01T20:33:37.975Z,16.90
2018-03-01T20:36:06.212Z,16.90
2018-03-01T20:38:34.533Z,16.80
2018-03-01T20:41:02.881Z,16.80
2018-03-01T20:43:31.147Z,16.80
2018-03-01T20:45:59.361Z,16.70
2018-03-01T20:48:27.608Z,16.80
2018-03-01T20:50:55.828Z,16.80
2018-03-01T20:53:24.230Z,16.80
2018-03-01T20:55:52.483Z,16.80
2018-03-01T20:58:20.634Z,16.70
2018-03-01T21:00:48.859Z,16.70
2018-03-01T21:03:17.105Z,16.70
2018-03-01T21:05:46.070Z,16.90
2018-03-01T21:08:14.285Z,16.80
2018-03-01T21:10:43.225Z,16.90
2018-03-01T21:13:11.556Z,16.80
2018-03-01T21:18:11.555Z,16.90
2018-03-01T21:20:39.738Z,16.90
2018-03-01T21:23:07.999Z,17.00
2018-03-01T21:25:36.173Z,17.00
2018-03-01T21:28:04.521Z,16.90
2018-03-01T21:30:32.722Z,16.90
2018-03-01T21:33:00.907Z,16.90
2018-03-01T21:35:29.174Z,16.90
2018-03-01T21:37:57.392Z,17.00
2018-03-01T21:40:25.709Z,16.90
2018-03-01T21:42:54.065Z,16.90
2018-03-01T21:45:22.231Z,16.90
2018-03-01T21:47:50.403Z,17.00
2018-03-01T21:50:18.603Z,16.80
2018-03-01T21:52:46.839Z,16.80
2018-03-01T21:55:15.035Z,16.80
2018-03-01T21:57:43.239Z,16.80
2018-03-01T22:00:11.420Z,16.90
2018-03-01T22:02:39.726Z,16.90
2018-03-01T22:05:08.033Z,16.80
2018-03-01T22:07:36.503Z,16.90
2018-03-01T22:10:04.752Z,16.90
2018-03-01T22:12:32.946Z,16.80
2018-03-01T22:15:01.118Z,16.80
2018-03-01T22:17:29.277Z,16.80
2018-03-01T22:19:57.724Z,16.90
2018-03-01T22:22:26.013Z,16.90
2018-03-01T22:24:55.012Z,17.10
2018-03-01T22:27:23.962Z,16.80
2018-03-01T22:29:52.939Z,16.80
2018-03-01T22:32:21.131Z,17.30
2018-03-01T22:34:49.368Z,16.70
2018-03-01T22:37:17.567Z,16.70
2018-03-01T22:39:45.915Z,16.80
2018-03-01T22:42:14.098Z,16.70
2018-03-01T22:44:42.371Z,16.80
2018-03-01T22:47:10.610Z,16.70
2018-03-01T22:49:38.875Z,16.60
2018-03-01T22:52:07.849Z,16.70
2018-03-01T22:54:36.021Z,16.70
2018-03-01T22:57:04.301Z,16.60
2018-03-01T22:59:32.452Z,16.60
2018-03-01T23:02:00.623Z,16.60
2018-03-01T23:04:28.854Z,16.50
2018-03-01T23:06:57.045Z,16.50
2018-03-01T23:09:25.218Z,16.60
2018-03-01T23:11:53.531Z,16.60
2018-03-01T23:14:21.720Z,16.60
2018-03-01T23:16:49.944Z,16.60
2018-03-01T23:19:18.206Z,16.60
2018-03-01T23:21:46.477Z,16.60
2018-03-01T23:24:15.536Z,16.60
2018-03-01T23:26:43.803Z,16.60
2018-03-01T23:29:12.081Z,16.60
2018-03-01T23:31:40.329Z,16.60
2018-03-01T23:34:08.514Z,16.50
2018-03-01T23:36:36.689Z,16.60
2018-03-01T23:39:05.052Z,16.60
2018-03-01T23:41:33.202Z,16.60
2018-03-01T23:44:01.471Z,16.50
2018-03-01T23:46:30.061Z,16.50
2018-03-01T23:48:58.286Z,16.50
2018-03-01T23:51:26.480Z,16.50
2018-03-01T23:53:55.867Z,16.50
2018-03-01T23:56:24.090Z,16.50
2018-03-01T23:58:52.277Z,16.60
